Newbury, OH (44065)

10:24 PM EDT on May 25, 2015 (GMT -0400)
Behind St. Helens | | Change Station
CLOSE
Current Station
Personal Weather Station
Location: Newbury, OH
Elevation: 1188 ft
Nearby Weather Stations

Elev 1188 ft 41.47 °N, 81.21 °W | Updated 6 minutes ago

Overcast
Overcast
71.6 °F
Feels Like 71 °F
N
0.0
Wind Variable Wind from South

Today
High -- | Low -- °F
--% Chance of Precip.
Yesterday
High -- | Low -- °F
Precip. -- in
5:57 AM 8:46 PM
First Quarter, 54% visible
Pressure 30.06 in
Visibility 10.0 miles
Clouds Few 4000 ft
Scattered Clouds 12000 ft
Mostly Cloudy 20000 ft
Heat Index 71 °F
Dew Point 66 °F
Humidity 82%
Rainfall 0.00 in
Snow Depth Not available.
UV 0 out of 12
Pollen 9.30 out of 12
Air Quality Not available.
Flu Activity Local Activity
METAR KCGF 260145Z 24015G20KT 10SM FEW040 SCT120 BKN200 25/16 A3006

More Conditions Fewer Conditions

Pressure 30.06 in
Visibility 10.0 miles
Clouds Few 4000 ft
Scattered Clouds 12000 ft
Mostly Cloudy 20000 ft
Heat Index 71 °F
Dew Point 66 °F
Humidity 82%
Rainfall 0.00 in
Snow Depth Not available.
UV 0 out of 12
Pollen 9.30 out of 12
Air Quality Not available.
Flu Activity Local Activity
METAR KCGF 260145Z 24015G20KT 10SM FEW040 SCT120 BKN200 25/16 A3006

More Conditions Fewer Conditions

10-Day Weather Forecast

Almanac

Astronomy

May. 25, 2015 Rise Set
Actual Time
Civil Twilight
Nautical Twilight
Astronomical Twilight
Moon
Length of Visible Light
Length of Day
Tomorrow will be .
, % of the Moon is Illuminated

Today's Extremes

State Highs State Lows

Community

WunderPhotos

Upload Photos

1,824,240 photos uploaded!

WunderBlogs® & News

Nearby

Air Quality

  Air Quality AQ Index Pollutant
Not available.

Snow Depth

Station Depth Elevation

Earthquake Activity

City Distance Mag. Time & Date
Minimum magnitude displayed is 2.5.

Coastal Water Temperatures

Place Temperature

Stations

Nearby Weather Stations

Station Location Temp. Windchill Dew Point Humidity Wind Precip. Elev Updated Type